Terminal Aerodrome Forecast
Issued by NWS Wilmington, OH

Current Version | Previous Version | Text Only | Print | Product List | Glossary On
Versions: 1 2 3 4 5 6 7 8 9 10 11 12 13 14 15 16 17 18 19 20 21
405 FTUS41 KILN 230535 TAFCVG TAF KCVG 230535Z 2306/2412 16010KT P6SM SCT100 OVC150 FM230800 12007KT P6SM VCSH OVC060 WS020/17040KT FM231500 21010KT P6SM SHRA OVC015 FM232000 19009KT P6SM VCSH OVC050 FM240000 27010KT P6SM BKN025 FM240300 27009KT P6SM BKN050=

USA.gov is the U.S. government's official web portal to all federal, state and local government web resources and services.